Time;durP1;ratioP1;P1;durP2;ratioP2;P2;SDS_P1;SDS_P2;PMS_P1;PMS_P2;Temp;Humidity;BMP_temperature;BMP_pressure;BME280_temperature;BME280_humidity;BME280_pressure;Samples;Min_cycle;Max_cycle;Signal;HPM_P1;HPM_P2
2023/05/01 00:00:11;;;;;;;4.95;1.05;;;16.30;69.90;;;;;;5014944;28;20018;-76
2023/05/01 00:02:37;;;;;;;3.15;1.17;;;16.30;70.10;;;;;;4997958;28;20121;-76
2023/05/01 00:05:03;;;;;;;3.20;1.45;;;16.30;70.10;;;;;;5015326;28;20068;-76
2023/05/01 00:07:30;;;;;;;3.65;1.02;;;16.20;70.10;;;;;;5015197;28;20034;-76
2023/05/01 00:09:58;;;;;;;3.85;1.45;;;16.20;70.10;;;;;;5015035;28;20410;-76
2023/05/01 00:12:24;;;;;;;3.45;1.20;;;16.10;70.40;;;;;;4997144;28;20037;-75
2023/05/01 00:14:50;;;;;;;3.90;1.40;;;16.10;70.50;;;;;;4997579;28;20034;-74
2023/05/01 00:17:16;;;;;;;5.78;1.50;;;16.10;70.60;;;;;;4996506;28;20034;-75
2023/05/01 00:19:42;;;;;;;4.47;1.27;;;16.10;70.40;;;;;;5014746;28;20037;-74
2023/05/01 00:22:08;;;;;;;4.68;1.20;;;16.10;70.50;;;;;;4996949;28;20050;-74
2023/05/01 00:24:33;;;;;;;3.40;1.20;;;16.00;70.50;;;;;;5014852;28;20041;-74
2023/05/01 00:26:59;;;;;;;4.63;1.30;;;16.00;70.50;;;;;;4996921;28;20034;-75
2023/05/01 00:29:25;;;;;;;2.85;1.13;;;16.00;70.70;;;;;;4996715;28;20510;-75
2023/05/01 00:31:50;;;;;;;5.05;1.30;;;16.00;70.90;;;;;;5014554;28;20058;-74
2023/05/01 00:34:16;;;;;;;2.75;0.80;;;16.00;71.10;;;;;;4997379;28;20049;-75
2023/05/01 00:36:42;;;;;;;4.07;1.15;;;16.00;71.00;;;;;;4996662;28;20030;-74
2023/05/01 00:39:07;;;;;;;4.10;1.15;;;16.00;71.40;;;;;;5014028;28;20064;-75
2023/05/01 00:41:34;;;;;;;4.00;1.60;;;16.00;70.80;;;;;;5014385;28;20093;-74
2023/05/01 00:43:59;;;;;;;3.85;1.20;;;16.00;70.50;;;;;;5014276;28;20050;-74
2023/05/01 00:46:26;;;;;;;4.15;1.00;;;16.00;70.60;;;;;;5014328;28;20068;-74
2023/05/01 00:48:52;;;;;;;3.45;1.15;;;16.00;70.20;;;;;;4996542;28;20042;-75
2023/05/01 00:51:19;;;;;;;5.50;1.40;;;15.90;69.90;;;;;;5014089;28;20037;-74
2023/05/01 00:53:46;;;;;;;4.72;1.15;;;15.80;70.10;;;;;;4997255;28;20117;-74
2023/05/01 00:56:13;;;;;;;3.30;0.95;;;15.80;69.90;;;;;;5013845;28;20033;-74
2023/05/01 00:58:39;;;;;;;6.70;1.30;;;15.80;70.10;;;;;;4995781;28;20034;-75
2023/05/01 01:01:07;;;;;;;3.47;0.77;;;15.80;70.20;;;;;;5013956;28;20096;-75
2023/05/01 01:03:33;;;;;;;3.42;0.85;;;15.90;70.60;;;;;;4996435;28;20030;-74
2023/05/01 01:06:16;;;;;;;4.32;1.02;;;15.90;70.40;;;;;;4996379;28;20030;-74
2023/05/01 01:08:52;;;;;;;4.82;0.95;;;15.90;70.10;;;;;;5014373;28;20112;-74
2023/05/01 01:11:45;;;;;;;2.60;0.63;;;15.90;69.50;;;;;;4996344;28;20030;-75
2023/05/01 01:14:17;;;;;;;2.10;0.73;;;15.90;69.60;;;;;;5013562;28;20042;-74
2023/05/01 01:17:15;;;;;;;5.13;1.13;;;15.90;69.80;;;;;;5013898;28;20080;-74
2023/05/01 01:20:07;;;;;;;3.20;0.95;;;16.00;69.10;;;;;;4928996;28;20133;-74
2023/05/01 01:22:38;;;;;;;1.65;0.63;;;16.00;69.20;;;;;;4995934;28;20049;-74
2023/05/01 01:25:29;;;;;;;5.07;1.00;;;16.00;69.60;;;;;;5018232;28;20091;-76
2023/05/01 01:28:36;;;;;;;5.57;1.30;;;16.00;69.20;;;;;;5017309;28;20030;-76
2023/05/01 01:31:08;;;;;;;4.70;1.17;;;16.00;68.20;;;;;;4970512;28;20046;-76
2023/05/01 01:33:53;;;;;;;3.80;0.85;;;15.90;68.20;;;;;;5016417;28;20029;-77
2023/05/01 01:36:40;;;;;;;5.30;1.20;;;15.80;67.70;;;;;;5017614;28;20030;-76
2023/05/01 01:39:23;;;;;;;4.32;1.23;;;15.70;67.70;;;;;;4968036;28;20052;-76
2023/05/01 01:41:49;;;;;;;;;;;15.70;68.50;;;;;;5017092;28;20029;-76
2023/05/01 01:44:23;;;;;;;2.75;0.73;;;15.80;68.70;;;;;;5019120;28;19916;-76
2023/05/01 01:46:51;;;;;;;5.78;1.25;;;15.90;69.00;;;;;;5000264;28;20026;-76
2023/05/01 01:49:22;;;;;;;7.65;1.30;;;15.90;68.10;;;;;;5017569;28;20034;-76
2023/05/01 01:51:49;;;;;;;2.70;0.60;;;15.80;68.00;;;;;;5017883;28;20022;-76
2023/05/01 01:54:25;;;;;;;4.32;1.27;;;15.90;68.40;;;;;;5015939;28;20065;-76
2023/05/01 01:56:52;;;;;;;2.75;1.10;;;15.90;68.60;;;;;;5015209;28;20021;-77
2023/05/01 01:59:21;;;;;;;4.38;1.35;;;15.90;68.00;;;;;;5014919;28;20378;-76
2023/05/01 02:01:49;;;;;;;3.35;0.70;;;15.80;67.30;;;;;;5015629;28;20026;-77
2023/05/01 02:04:16;;;;;;;2.25;0.73;;;15.70;68.00;;;;;;5016471;28;20050;-76
2023/05/01 02:06:44;;;;;;;2.67;0.77;;;15.70;69.00;;;;;;5015733;28;20241;-77
2023/05/01 02:09:11;;;;;;;5.57;1.40;;;15.80;68.50;;;;;;4998402;28;20383;-76
2023/05/01 02:11:38;;;;;;;3.63;1.00;;;15.80;68.20;;;;;;5018522;28;20026;-77
2023/05/01 02:14:05;;;;;;;6.65;1.60;;;15.70;67.40;;;;;;5017790;28;20057;-76
2023/05/01 02:16:33;;;;;;;4.53;1.10;;;15.50;67.00;;;;;;4999807;28;20036;-77
2023/05/01 02:19:00;;;;;;;4.95;1.10;;;15.20;67.60;;;;;;4999871;28;20447;-77
2023/05/01 02:21:27;;;;;;;5.75;1.70;;;15.30;68.70;;;;;;5020702;28;20056;-77
2023/05/01 02:23:54;;;;;;;6.38;1.50;;;15.30;68.50;;;;;;5020064;28;20050;-77
2023/05/01 02:26:23;;;;;;;7.10;1.40;;;15.40;69.00;;;;;;5001149;28;20030;-77
2023/05/01 02:28:49;;;;;;;5.65;1.40;;;15.30;67.90;;;;;;5018695;28;20029;-77
2023/05/01 02:31:14;;;;;;;3.72;1.10;;;15.20;68.20;;;;;;5019401;28;20030;-77
2023/05/01 02:33:40;;;;;;;5.55;1.30;;;15.20;69.20;;;;;;5001622;28;20041;-76
2023/05/01 02:36:06;;;;;;;3.63;1.40;;;15.30;68.80;;;;;;5019505;28;20029;-77
2023/05/01 02:38:31;;;;;;;2.28;0.90;;;15.30;68.30;;;;;;5002994;28;20455;-77
2023/05/01 02:40:58;;;;;;;4.63;1.40;;;15.30;69.00;;;;;;5020997;28;20046;-77
2023/05/01 02:43:26;;;;;;;1.38;0.57;;;15.40;69.00;;;;;;5020673;28;20041;-76
2023/05/01 02:45:53;;;;;;;4.85;1.25;;;15.40;69.20;;;;;;5003446;28;20034;-77
2023/05/01 02:48:26;;;;;;;2.40;1.13;;;15.50;69.30;;;;;;5003868;28;20037;-77
2023/05/01 02:50:54;;;;;;;4.45;1.80;;;15.50;69.10;;;;;;5022632;28;20026;-77
2023/05/01 02:53:21;;;;;;;6.95;1.50;;;15.50;68.10;;;;;;5022799;28;20077;-76
2023/05/01 02:55:47;;;;;;;6.70;1.40;;;15.40;68.00;;;;;;5021999;28;20340;-76
2023/05/01 02:58:18;;;;;;;3.67;0.90;;;15.30;68.30;;;;;;5004883;28;20088;-78
2023/05/01 03:00:44;;;;;;;3.30;0.68;;;15.30;69.10;;;;;;5019869;28;20030;-77
2023/05/01 03:03:10;;;;;;;4.65;1.30;;;15.40;69.70;;;;;;5020520;28;20425;-76
2023/05/01 03:05:37;;;;;;;4.38;1.30;;;15.50;69.80;;;;;;5001378;28;20145;-76
2023/05/01 03:08:03;;;;;;;2.97;1.13;;;15.50;69.40;;;;;;5018809;28;20045;-76
2023/05/01 03:10:29;;;;;;;4.25;1.45;;;15.50;68.90;;;;;;5017720;28;20467;-77
2023/05/01 03:12:55;;;;;;;4.55;1.30;;;15.40;68.40;;;;;;5017849;28;20474;-77
2023/05/01 03:15:20;;;;;;;4.10;1.00;;;15.30;68.80;;;;;;5001392;28;20037;-76
2023/05/01 03:17:46;;;;;;;8.32;1.83;;;15.30;69.30;;;;;;5017949;28;20038;-77
2023/05/01 03:20:12;;;;;;;5.45;1.52;;;15.30;68.40;;;;;;5017758;28;20064;-76
2023/05/01 03:22:38;;;;;;;3.58;1.30;;;15.20;68.90;;;;;;4986151;28;20550;-77
2023/05/01 03:25:04;;;;;;;5.53;1.70;;;15.30;69.00;;;;;;5019661;28;20030;-77
2023/05/01 03:27:30;;;;;;;4.72;1.67;;;15.30;69.00;;;;;;5002230;28;20034;-77
2023/05/01 03:29:56;;;;;;;5.32;1.52;;;15.30;68.80;;;;;;5019976;28;20088;-77
2023/05/01 03:32:22;;;;;;;4.25;1.58;;;15.20;69.00;;;;;;5017980;28;20033;-77
2023/05/01 03:34:47;;;;;;;7.47;1.45;;;15.20;69.00;;;;;;5001681;28;20057;-77
2023/05/01 03:37:14;;;;;;;4.38;1.50;;;15.10;69.40;;;;;;5018860;28;20516;-77
2023/05/01 03:39:40;;;;;;;6.13;1.67;;;15.10;68.80;;;;;;5001345;28;20390;-77
2023/05/01 03:42:05;;;;;;;3.80;1.60;;;15.20;69.00;;;;;;5018717;28;20030;-77
2023/05/01 03:44:31;;;;;;;7.20;1.70;;;15.20;69.10;;;;;;5017779;28;20033;-77
2023/05/01 03:46:57;;;;;;;4.13;1.30;;;15.20;69.20;;;;;;5015655;28;20034;-76
2023/05/01 03:49:23;;;;;;;3.53;1.17;;;15.20;69.00;;;;;;4999305;28;20475;-77
2023/05/01 03:51:48;;;;;;;5.88;2.15;;;15.20;68.90;;;;;;4998948;28;20037;-76
2023/05/01 03:54:16;;;;;;;6.85;1.92;;;15.20;68.90;;;;;;5016489;28;20026;-76
2023/05/01 03:56:42;;;;;;;7.60;1.70;;;15.10;68.80;;;;;;5000099;28;20340;-77
2023/05/01 03:59:07;;;;;;;2.85;1.10;;;15.10;69.00;;;;;;5018072;28;20045;-76
2023/05/01 04:01:33;;;;;;;4.15;1.58;;;15.10;69.50;;;;;;5016271;28;20030;-77
2023/05/01 04:03:59;;;;;;;3.08;1.35;;;15.10;69.50;;;;;;5016964;28;20053;-77
2023/05/01 04:06:25;;;;;;;5.15;1.60;;;15.10;69.90;;;;;;5017561;28;20093;-77
2023/05/01 04:08:50;;;;;;;7.40;2.00;;;15.10;70.30;;;;;;5017297;28;20029;-76
2023/05/01 04:11:16;;;;;;;4.85;1.75;;;15.10;70.00;;;;;;4999562;28;20084;-77
2023/05/01 04:13:41;;;;;;;5.05;1.90;;;15.00;69.70;;;;;;5016645;28;20493;-76
2023/05/01 04:16:07;;;;;;;4.60;1.30;;;14.90;70.20;;;;;;4999891;28;20041;-77
2023/05/01 04:18:33;;;;;;;5.43;1.50;;;14.90;69.90;;;;;;5000390;28;20561;-77
2023/05/01 04:20:58;;;;;;;10.63;2.50;;;14.90;70.40;;;;;;5017007;28;20060;-77
2023/05/01 04:23:24;;;;;;;6.38;1.63;;;14.90;70.00;;;;;;4982166;28;20124;-77
2023/05/01 04:25:50;;;;;;;6.85;1.77;;;14.80;70.20;;;;;;4982929;28;20034;-77
2023/05/01 04:28:15;;;;;;;5.63;1.60;;;14.70;70.60;;;;;;5016206;28;20033;-77
2023/05/01 04:30:41;;;;;;;3.20;1.45;;;14.70;70.90;;;;;;4982744;28;20033;-77
2023/05/01 04:33:10;;;;;;;9.13;2.05;;;14.80;70.90;;;;;;5015769;28;20522;-77
2023/05/01 04:35:39;;;;;;;6.25;1.90;;;14.70;70.40;;;;;;4982291;28;20120;-76
2023/05/01 04:38:06;;;;;;;8.15;2.00;;;14.60;70.60;;;;;;5014679;28;20107;-76
2023/05/01 04:40:31;;;;;;;4.75;1.85;;;14.70;70.80;;;;;;4997333;28;20394;-76
2023/05/01 04:42:57;;;;;;;4.47;1.73;;;14.70;70.80;;;;;;5014716;28;20040;-76
2023/05/01 04:45:23;;;;;;;6.03;2.00;;;14.70;70.60;;;;;;5015124;28;20032;-77
2023/05/01 04:47:48;;;;;;;5.18;1.65;;;14.70;70.90;;;;;;5014951;28;20091;-77
2023/05/01 04:50:14;;;;;;;6.93;1.88;;;14.70;71.40;;;;;;4997511;28;20034;-76
2023/05/01 04:52:40;;;;;;;5.15;1.55;;;14.80;71.20;;;;;;5014446;28;20035;-76
2023/05/01 04:55:08;;;;;;;4.30;1.55;;;14.80;71.20;;;;;;5014429;28;20080;-77
2023/05/01 04:57:34;;;;;;;3.63;1.65;;;14.80;70.80;;;;;;4998066;28;20124;-76
2023/05/01 05:00:00;;;;;;;6.22;1.90;;;14.90;71.00;;;;;;5016107;28;20474;-76
2023/05/01 05:02:25;;;;;;;5.35;1.70;;;14.90;70.90;;;;;;4998241;28;20116;-77
2023/05/01 05:04:53;;;;;;;4.38;1.60;;;15.00;70.50;;;;;;4998485;28;20052;-76
2023/05/01 05:07:19;;;;;;;5.38;2.10;;;14.90;70.20;;;;;;5015346;28;20117;-76
2023/05/01 05:09:45;;;;;;;3.95;1.65;;;14.90;69.90;;;;;;4998041;28;20030;-76
2023/05/01 05:12:11;;;;;;;7.40;2.55;;;14.90;69.90;;;;;;4998521;28;20033;-76
2023/05/01 05:14:36;;;;;;;4.63;1.67;;;14.80;70.20;;;;;;5015366;28;20413;-78
2023/05/01 05:17:02;;;;;;;5.25;2.15;;;14.90;70.30;;;;;;4996657;28;20429;-78
2023/05/01 05:19:27;;;;;;;5.07;1.77;;;14.90;70.20;;;;;;4980086;28;20089;-78
2023/05/01 05:21:53;;;;;;;6.18;2.38;;;14.80;70.50;;;;;;4996078;28;20458;-78
2023/05/01 05:24:19;;;;;;;5.18;2.38;;;14.80;70.40;;;;;;4980483;28;20555;-78
2023/05/01 05:26:44;;;;;;;8.20;2.17;;;14.70;70.50;;;;;;5013961;28;20037;-78
2023/05/01 05:29:10;;;;;;;10.80;2.70;;;14.70;70.80;;;;;;5013738;28;20116;-78
2023/05/01 05:31:36;;;;;;;5.60;2.50;;;14.60;70.60;;;;;;5014208;28;20038;-77
2023/05/01 05:34:01;;;;;;;4.97;2.13;;;14.60;70.90;;;;;;4996238;28;20041;-78
2023/05/01 05:36:27;;;;;;;7.47;2.33;;;14.50;71.10;;;;;;4996241;28;20083;-78
2023/05/01 05:38:53;;;;;;;5.63;2.78;;;14.50;71.10;;;;;;4996563;28;20065;-78
2023/05/01 05:41:19;;;;;;;7.85;2.50;;;14.50;71.30;;;;;;4996997;28;20030;-79
2023/05/01 05:43:44;;;;;;;7.28;2.15;;;14.60;71.60;;;;;;5013765;28;20030;-78
2023/05/01 05:46:10;;;;;;;6.18;2.85;;;14.40;71.20;;;;;;4980054;28;20129;-79
2023/05/01 05:48:36;;;;;;;5.97;2.78;;;14.30;71.70;;;;;;4996503;28;20418;-80
2023/05/01 05:51:02;;;;;;;2.80;1.92;;;14.30;72.30;;;;;;5013404;28;20026;-82
2023/05/01 05:53:27;;;;;;;5.28;2.30;;;14.20;72.50;;;;;;5013764;28;20052;-80
2023/05/01 05:55:53;;;;;;;5.05;2.75;;;14.30;72.80;;;;;;4995964;28;20026;-83
2023/05/01 05:58:19;;;;;;;4.72;1.88;;;14.40;72.60;;;;;;5014084;28;20040;-82
2023/05/01 06:00:46;;;;;;;5.68;2.65;;;14.50;72.90;;;;;;4995586;28;20030;-81
2023/05/01 06:03:12;;;;;;;4.80;2.60;;;14.60;72.30;;;;;;4995972;28;20086;-81
2023/05/01 06:05:38;;;;;;;7.68;2.60;;;14.60;72.00;;;;;;5014483;28;20038;-78
2023/05/01 06:08:03;;;;;;;9.75;2.70;;;14.60;71.70;;;;;;5013808;28;20467;-80
2023/05/01 06:10:29;;;;;;;6.25;2.55;;;14.60;71.90;;;;;;5015092;28;20037;-80
2023/05/01 06:12:55;;;;;;;5.38;2.45;;;14.50;72.30;;;;;;5000551;28;20038;-80
2023/05/01 06:15:21;;;;;;;8.52;3.13;;;14.60;72.40;;;;;;4999989;28;20486;-80
2023/05/01 06:17:46;;;;;;;6.10;2.80;;;14.60;72.20;;;;;;5000172;28;20138;-78
2023/05/01 06:20:13;;;;;;;5.95;3.10;;;14.60;72.40;;;;;;4999863;28;20030;-75
2023/05/01 06:22:38;;;;;;;9.75;3.00;;;14.60;72.60;;;;;;4983172;28;20486;-75
2023/05/01 06:25:05;;;;;;;8.48;3.00;;;14.60;72.50;;;;;;5016794;28;20030;-77
2023/05/01 06:27:31;;;;;;;6.90;2.42;;;14.60;72.50;;;;;;5017360;28;20176;-76
2023/05/01 06:29:57;;;;;;;5.63;2.40;;;14.70;72.70;;;;;;4983227;28;20509;-77
2023/05/01 06:32:22;;;;;;;6.38;2.50;;;14.70;72.50;;;;;;5017217;28;20037;-77
2023/05/01 06:34:48;;;;;;;8.30;2.88;;;14.70;72.40;;;;;;4999307;28;20030;-76
2023/05/01 06:37:14;;;;;;;6.93;2.60;;;14.80;72.50;;;;;;4999714;28;20038;-76
2023/05/01 06:39:39;;;;;;;9.10;2.50;;;14.80;72.50;;;;;;5017061;28;20473;-77
2023/05/01 06:42:06;;;;;;;6.35;2.22;;;14.80;73.10;;;;;;4982991;28;20037;-75
2023/05/01 06:44:32;;;;;;;4.00;2.28;;;14.80;72.50;;;;;;5016783;28;20026;-76
2023/05/01 06:47:00;;;;;;;6.25;2.80;;;14.80;72.50;;;;;;4999736;28;20033;-75
2023/05/01 06:49:26;;;;;;;8.43;3.17;;;14.90;72.70;;;;;;4999756;28;20030;-77
2023/05/01 06:51:52;;;;;;;9.07;3.40;;;14.90;72.20;;;;;;4983427;28;20455;-77
2023/05/01 06:54:17;;;;;;;9.25;3.15;;;14.80;72.80;;;;;;5016547;28;20105;-77
2023/05/01 06:56:43;;;;;;;8.05;3.05;;;14.70;72.90;;;;;;4998961;28;20030;-75
2023/05/01 06:59:09;;;;;;;4.85;2.53;;;14.60;72.70;;;;;;5016240;28;20088;-76
2023/05/01 07:01:35;;;;;;;5.65;3.17;;;14.60;73.40;;;;;;4998799;28;20440;-75
2023/05/01 07:04:00;;;;;;;4.80;2.53;;;14.60;73.60;;;;;;5016380;28;20026;-77
2023/05/01 07:06:26;;;;;;;8.23;3.10;;;14.60;73.60;;;;;;4998711;28;20462;-77
2023/05/01 07:08:52;;;;;;;7.05;3.30;;;14.70;73.80;;;;;;4998669;28;20042;-79
2023/05/01 07:11:17;;;;;;;9.77;3.45;;;14.70;73.60;;;;;;5016240;28;20485;-84
2023/05/01 07:13:43;;;;;;;7.93;2.88;;;14.70;74.20;;;;;;4982608;28;20033;-87
2023/05/01 07:16:09;;;;;;;7.65;3.80;;;14.70;74.20;;;;;;4998539;28;20030;-86
2023/05/01 07:18:36;;;;;;;13.93;4.43;;;14.80;73.90;;;;;;5016013;28;20034;-86
2023/05/01 07:21:02;;;;;;;6.15;2.58;;;14.90;73.80;;;;;;5015873;28;20032;-85
2023/05/01 07:23:28;;;;;;;6.85;3.35;;;14.90;73.70;;;;;;4998240;28;20090;-86
2023/05/01 07:25:54;;;;;;;7.32;3.60;;;14.90;74.00;;;;;;5015747;28;20418;-84
2023/05/01 07:28:20;;;;;;;5.90;3.17;;;15.00;73.90;;;;;;4998869;28;20038;-84
2023/05/01 07:30:46;;;;;;;6.80;2.85;;;14.90;74.20;;;;;;4998648;28;20473;-85
2023/05/01 07:33:12;;;;;;;7.30;3.47;;;14.90;74.10;;;;;;4982182;28;20026;-84
2023/05/01 07:35:37;;;;;;;7.50;3.20;;;14.90;74.00;;;;;;5015491;28;20462;-86
2023/05/01 07:38:03;;;;;;;7.03;3.28;;;14.80;74.30;;;;;;4998772;28;20046;-83
2023/05/01 07:40:31;;;;;;;6.30;3.00;;;14.80;74.30;;;;;;5015789;28;20482;-84
2023/05/01 07:42:57;;;;;;;9.65;3.38;;;14.90;74.20;;;;;;4998075;28;20030;-85
2023/05/01 07:45:23;;;;;;;8.40;3.45;;;15.10;74.20;;;;;;4981769;28;20040;-85
2023/05/01 07:47:48;;;;;;;9.13;3.65;;;15.20;74.40;;;;;;4997892;28;20395;-86
2023/05/01 07:50:15;;;;;;;6.63;3.50;;;15.30;74.20;;;;;;4997943;28;20022;-86
2023/05/01 07:52:41;;;;;;;8.80;4.10;;;15.30;74.20;;;;;;5015607;28;20084;-79
2023/05/01 07:55:07;;;;;;;7.15;3.20;;;15.20;74.50;;;;;;5015455;28;20467;-80
2023/05/01 07:57:34;;;;;;;8.25;3.95;;;15.30;74.30;;;;;;5015544;28;20038;-79
2023/05/01 08:00:00;;;;;;;7.75;3.70;;;15.30;74.00;;;;;;5015296;28;20577;-80
2023/05/01 08:02:26;;;;;;;8.10;3.95;;;15.30;74.50;;;;;;4997711;28;20083;-79
2023/05/01 08:04:52;;;;;;;8.88;4.18;;;15.20;75.10;;;;;;4997969;28;20040;-85
2023/05/01 08:07:18;;;;;;;6.55;4.15;;;15.10;75.20;;;;;;5015565;28;20037;-86
2023/05/01 08:09:44;;;;;;;8.90;3.65;;;15.10;75.60;;;;;;4997636;28;20029;-84
2023/05/01 08:12:10;;;;;;;7.90;3.60;;;15.20;75.40;;;;;;4997698;28;20029;-86
2023/05/01 08:14:35;;;;;;;6.72;3.10;;;15.30;74.90;;;;;;5014993;28;20147;-86
2023/05/01 08:17:01;;;;;;;6.75;3.72;;;15.50;74.60;;;;;;4997291;28;20034;-85
2023/05/01 08:19:27;;;;;;;8.65;3.60;;;15.60;74.60;;;;;;4997494;28;20042;-86
2023/05/01 08:21:53;;;;;;;11.27;4.38;;;15.70;74.20;;;;;;5015092;28;20030;-84
2023/05/01 08:24:19;;;;;;;10.50;4.47;;;15.80;74.00;;;;;;4981375;28;20121;-87
2023/05/01 08:26:45;;;;;;;7.80;4.28;;;15.80;73.90;;;;;;5014918;28;20109;-79
2023/05/01 08:29:11;;;;;;;5.20;3.38;;;15.70;74.70;;;;;;4997714;28;20026;-79
2023/05/01 08:31:38;;;;;;;7.75;3.63;;;15.80;75.00;;;;;;4997255;28;20112;-80
2023/05/01 08:34:04;;;;;;;8.20;3.40;;;15.90;75.80;;;;;;4996541;28;20061;-81
2023/05/01 08:36:32;;;;;;;9.48;4.28;;;16.10;75.10;;;;;;5014713;28;20036;-80
2023/05/01 08:38:58;;;;;;;7.85;3.55;;;16.20;74.40;;;;;;5014892;28;20033;-79
2023/05/01 08:41:26;;;;;;;6.88;3.67;;;16.40;74.00;;;;;;5014810;28;20053;-79
2023/05/01 08:43:52;;;;;;;9.52;3.65;;;16.60;73.90;;;;;;5014825;28;20041;-79
2023/05/01 08:47:06;;;;;;;7.75;3.90;;;16.80;73.80;;;;;;4997015;28;20037;-79
2023/05/01 08:49:35;;;;;;;8.13;3.65;;;16.90;73.50;;;;;;5015088;28;20030;-80
2023/05/01 08:52:02;;;;;;;7.40;3.90;;;17.10;72.20;;;;;;4997311;28;20026;-80
2023/05/01 08:54:31;;;;;;;7.30;4.00;;;17.30;72.00;;;;;;5014376;28;20034;-79
2023/05/01 08:57:03;;;;;;;8.77;4.13;;;17.40;71.60;;;;;;5013992;28;20049;-79
2023/05/01 08:59:30;;;;;;;;;;;17.40;71.90;;;;;;4997019;28;20065;-80
2023/05/01 09:02:00;;;;;;;8.45;4.68;;;17.50;71.20;;;;;;4997447;28;20012;-80
2023/05/01 09:04:32;;;;;;;9.38;3.90;;;17.60;72.40;;;;;;4997066;28;20029;-79
2023/05/01 09:07:02;;;;;;;5.75;3.65;;;17.60;72.50;;;;;;5014278;28;20450;-80
2023/05/01 09:09:28;;;;;;;10.07;4.05;;;17.90;71.50;;;;;;5014303;28;20088;-80
2023/05/01 09:12:03;;;;;;;5.72;3.00;;;18.10;71.30;;;;;;5013870;28;20497;-80
2023/05/01 09:14:31;;;;;;;5.47;3.35;;;18.30;70.70;;;;;;5014143;28;20111;-79
2023/05/01 09:16:57;;;;;;;4.80;2.92;;;18.40;69.30;;;;;;5014467;28;20034;-80
2023/05/01 09:19:24;;;;;;;5.53;3.25;;;18.60;68.90;;;;;;4996459;28;20052;-79
2023/05/01 09:21:51;;;;;;;5.68;3.40;;;18.80;70.00;;;;;;5013575;28;20075;-80
2023/05/01 09:24:17;;;;;;;6.40;3.42;;;18.90;68.50;;;;;;5013530;28;20548;-80
2023/05/01 09:26:43;;;;;;;6.72;2.83;;;19.00;68.30;;;;;;4996480;28;20041;-80
2023/05/01 09:29:09;;;;;;;6.25;3.05;;;19.10;68.30;;;;;;5013543;28;20233;-80
2023/05/01 09:31:35;;;;;;;5.10;2.75;;;19.30;68.20;;;;;;5013843;28;20158;-79
2023/05/01 09:34:04;;;;;;;6.75;2.78;;;19.40;67.80;;;;;;5013835;28;20490;-80
2023/05/01 09:36:32;;;;;;;5.93;2.97;;;19.60;67.00;;;;;;5013815;28;20450;-80
2023/05/01 09:39:01;;;;;;;3.88;2.65;;;19.70;67.60;;;;;;5013769;28;20034;-80
2023/05/01 09:41:27;;;;;;;4.07;2.47;;;19.80;67.10;;;;;;4996709;28;20030;-80
2023/05/01 09:43:55;;;;;;;9.80;2.92;;;19.90;66.60;;;;;;5014041;28;20022;-79
2023/05/01 09:46:23;;;;;;;6.97;2.92;;;20.00;66.50;;;;;;5016874;28;20112;-80
2023/05/01 09:48:57;;;;;;;5.97;2.83;;;20.00;66.50;;;;;;5018081;28;20030;-81
2023/05/01 09:51:25;;;;;;;5.30;3.20;;;20.10;66.90;;;;;;5017874;28;20026;-81
2023/05/01 09:53:52;;;;;;;9.45;3.10;;;20.10;66.40;;;;;;5000204;28;20036;-80
2023/05/01 09:56:20;;;;;;;9.25;3.00;;;20.20;67.10;;;;;;5017554;28;20450;-79
2023/05/01 09:58:46;;;;;;;8.40;3.08;;;20.20;66.40;;;;;;4999788;28;20038;-79
2023/05/01 10:01:11;;;;;;;5.15;3.00;;;20.20;65.40;;;;;;5017876;28;20072;-79
2023/05/01 10:03:37;;;;;;;7.60;2.97;;;20.20;65.60;;;;;;5017567;28;20487;-79
2023/05/01 10:06:03;;;;;;;6.18;2.88;;;20.20;66.00;;;;;;4983639;28;20034;-79
2023/05/01 10:08:48;;;;;;;5.53;2.90;;;20.30;65.50;;;;;;5000014;28;20030;-79
2023/05/01 10:11:15;;;;;;;4.75;2.40;;;20.50;66.00;;;;;;5017934;28;20042;-78
2023/05/01 10:13:41;;;;;;;4.32;2.17;;;20.60;65.40;;;;;;4983817;28;20107;-79
2023/05/01 10:16:26;;;;;;;6.03;2.92;;;20.60;65.00;;;;;;5017284;28;20029;-79
2023/05/01 10:18:54;;;;;;;4.10;2.42;;;20.60;64.60;;;;;;5017154;28;20069;-79
2023/05/01 10:21:20;;;;;;;10.13;3.13;;;20.50;64.80;;;;;;4999648;28;20034;-79
2023/05/01 10:23:45;;;;;;;6.53;2.85;;;20.40;65.10;;;;;;4999556;28;20457;-79
2023/05/01 10:26:15;;;;;;;3.90;2.10;;;20.50;65.10;;;;;;5017408;28;20026;-79
2023/05/01 10:28:42;;;;;;;5.32;2.42;;;20.50;65.10;;;;;;5016731;28;20544;-79
2023/05/01 10:31:10;;;;;;;5.32;2.40;;;20.60;65.40;;;;;;4999520;28;20370;-79
2023/05/01 10:33:38;;;;;;;4.30;1.70;;;20.80;64.80;;;;;;5016998;28;20137;-79
2023/05/01 10:36:08;;;;;;;5.85;2.30;;;20.90;64.40;;;;;;5016928;28;20136;-80
2023/05/01 10:38:34;;;;;;;4.88;1.80;;;20.90;63.80;;;;;;4983386;28;20038;-79
2023/05/01 10:41:00;;;;;;;5.45;1.77;;;21.00;64.00;;;;;;4999354;28;20037;-79
2023/05/01 10:43:27;;;;;;;3.15;1.98;;;21.10;64.00;;;;;;4982914;28;20038;-79
2023/05/01 10:46:17;;;;;;;4.68;2.08;;;21.20;63.70;;;;;;5016977;28;20053;-81
2023/05/01 10:48:43;;;;;;;5.50;1.75;;;21.20;63.50;;;;;;4985496;28;20065;-78
2023/05/01 10:51:19;;;;;;;4.53;1.75;;;21.20;63.30;;;;;;4998738;28;20057;-78
2023/05/01 10:53:46;;;;;;;4.53;2.00;;;21.20;63.10;;;;;;5017426;28;20133;-78
2023/05/01 10:56:20;;;;;;;7.45;1.92;;;21.20;62.90;;;;;;5016254;28;20033;-79
2023/05/01 10:58:50;;;;;;;4.30;1.42;;;21.20;63.00;;;;;;5016348;28;20124;-80
2023/05/01 11:01:27;;;;;;;5.07;1.67;;;21.20;62.90;;;;;;5016464;28;20037;-78
2023/05/01 11:03:58;;;;;;;6.05;1.77;;;21.20;62.60;;;;;;4999389;28;20363;-81
2023/05/01 11:06:24;;;;;;;2.63;1.23;;;21.20;62.70;;;;;;5016703;28;20034;-79
2023/05/01 11:08:50;;;;;;;2.78;1.27;;;21.30;62.50;;;;;;4998692;28;20030;-78
2023/05/01 11:11:22;;;;;;;11.27;2.20;;;21.50;61.80;;;;;;5016243;28;20360;-79
2023/05/01 11:13:57;;;;;;;2.47;1.10;;;21.60;61.10;;;;;;4999124;28;20359;-78
2023/05/01 11:16:41;;;;;;;5.85;1.33;;;21.80;60.40;;;;;;5016040;28;20022;-78
2023/05/01 11:19:19;;;;;;;3.65;1.30;;;21.90;61.30;;;;;;4999279;28;20443;-79
2023/05/01 11:21:45;;;;;;;4.53;1.25;;;22.00;61.40;;;;;;5016377;28;20033;-78
2023/05/01 11:24:11;;;;;;;4.88;0.88;;;21.90;61.00;;;;;;4982841;28;20100;-78
2023/05/01 11:26:42;;;;;;;4.05;1.30;;;21.90;58.50;;;;;;4998406;28;20030;-79
2023/05/01 11:29:11;;;;;;;6.68;1.40;;;21.90;60.10;;;;;;4998218;28;20385;-79
2023/05/01 11:31:38;;;;;;;4.13;0.80;;;22.00;58.80;;;;;;5016147;28;20022;-79
2023/05/01 11:34:07;;;;;;;3.67;0.75;;;22.00;59.10;;;;;;5015855;28;20026;-79
2023/05/01 11:36:49;;;;;;;3.20;0.73;;;22.10;59.50;;;;;;5016241;28;20049;-79
2023/05/01 11:39:18;;;;;;;5.68;1.67;;;22.10;58.30;;;;;;4998737;28;20075;-79
2023/05/01 11:41:45;;;;;;;3.72;0.93;;;22.20;58.30;;;;;;5015711;28;20495;-79
2023/05/01 11:44:15;;;;;;;2.75;0.60;;;22.20;59.10;;;;;;5015931;28;20033;-79
2023/05/01 11:46:41;;;;;;;2.17;0.93;;;22.20;58.50;;;;;;4981624;28;20029;-79
2023/05/01 11:49:08;;;;;;;3.55;1.20;;;22.20;57.90;;;;;;4998170;28;20025;-78
2023/05/01 11:51:34;;;;;;;6.22;0.90;;;22.20;58.30;;;;;;5015418;28;20033;-79
2023/05/01 11:54:04;;;;;;;2.58;0.90;;;22.20;59.30;;;;;;4997971;28;20084;-78
2023/05/01 11:56:31;;;;;;;3.78;0.90;;;22.10;57.90;;;;;;5015735;28;20029;-79
2023/05/01 11:58:59;;;;;;;5.63;1.45;;;22.10;57.90;;;;;;5015542;28;20088;-79
2023/05/01 12:01:35;;;;;;;2.00;1.00;;;22.10;57.20;;;;;;5015311;28;20486;-79
2023/05/01 12:04:02;;;;;;;2.70;0.82;;;22.10;57.40;;;;;;5015230;28;20077;-79
2023/05/01 12:06:39;;;;;;;2.67;1.20;;;22.10;57.70;;;;;;5015265;28;20037;-79
2023/05/01 12:09:06;;;;;;;3.95;1.02;;;22.00;58.80;;;;;;5014306;28;20106;-79
2023/05/01 12:11:33;;;;;;;3.78;0.95;;;22.00;58.90;;;;;;5015147;28;20060;-79
2023/05/01 12:13:59;;;;;;;3.45;1.30;;;21.90;57.70;;;;;;5015395;28;20451;-79
2023/05/01 12:16:27;;;;;;;2.17;0.60;;;21.70;57.60;;;;;;5015241;28;20041;-79
2023/05/01 12:18:52;;;;;;;4.45;1.00;;;21.70;58.00;;;;;;4997076;28;20121;-79
2023/05/01 12:21:21;;;;;;;5.18;0.55;;;21.50;57.80;;;;;;5014996;28;20490;-79
2023/05/01 12:23:49;;;;;;;3.95;0.70;;;21.50;57.60;;;;;;5015137;28;20408;-79
2023/05/01 12:26:22;;;;;;;8.35;1.30;;;21.40;57.70;;;;;;5014884;28;20049;-79
2023/05/01 12:28:56;;;;;;;2.75;0.90;;;21.40;57.10;;;;;;4997773;28;20034;-80
2023/05/01 12:31:24;;;;;;;2.20;0.60;;;21.40;57.80;;;;;;5014827;28;20018;-79
2023/05/01 12:33:59;;;;;;;5.82;0.68;;;21.40;57.50;;;;;;4980926;28;20033;-80
2023/05/01 12:36:27;;;;;;;4.68;0.75;;;21.40;57.20;;;;;;4997039;28;20034;-79
2023/05/01 12:38:59;;;;;;;3.63;0.60;;;21.40;57.80;;;;;;5014909;28;20041;-79
2023/05/01 12:41:36;;;;;;;5.28;0.88;;;21.40;57.20;;;;;;5014696;28;20487;-79
2023/05/01 12:44:15;;;;;;;2.67;0.80;;;21.40;56.80;;;;;;4997703;28;20065;-79
2023/05/01 12:46:42;;;;;;;3.17;0.93;;;21.40;57.30;;;;;;5014911;28;20494;-79
2023/05/01 12:49:08;;;;;;;2.75;0.45;;;21.30;56.60;;;;;;5014473;28;20030;-79
2023/05/01 12:51:33;;;;;;;2.40;0.70;;;21.30;56.40;;;;;;4996421;28;20029;-79